sensor_id;sensor_type;location;lat;lon;timestamp;temperature;humidity
38938;DHT22;24727;51.974;20.868;2023-02-01T00:02:09;1.90;97.60
38938;DHT22;24727;51.974;20.868;2023-02-01T00:04:35;1.90;98.00
38938;DHT22;24727;51.974;20.868;2023-02-01T00:07:00;1.80;99.10
38938;DHT22;24727;51.974;20.868;2023-02-01T00:09:28;1.80;98.60
38938;DHT22;24727;51.974;20.868;2023-02-01T00:11:54;1.80;98.70
38938;DHT22;24727;51.974;20.868;2023-02-01T00:14:21;1.70;98.50
38938;DHT22;24727;51.974;20.868;2023-02-01T00:16:48;1.70;98.70
38938;DHT22;24727;51.974;20.868;2023-02-01T00:19:14;1.70;99.00
38938;DHT22;24727;51.974;20.868;2023-02-01T00:21:42;1.60;99.10
38938;DHT22;24727;51.974;20.868;2023-02-01T00:24:12;1.70;99.60
38938;DHT22;24727;51.974;20.868;2023-02-01T00:26:43;1.70;99.90
38938;DHT22;24727;51.974;20.868;2023-02-01T00:29:13;1.80;99.90
38938;DHT22;24727;51.974;20.868;2023-02-01T00:31:39;1.80;99.90
38938;DHT22;24727;51.974;20.868;2023-02-01T00:34:07;1.80;99.90
38938;DHT22;24727;51.974;20.868;2023-02-01T00:36:36;1.90;99.90
38938;DHT22;24727;51.974;20.868;2023-02-01T00:39:03;2.00;99.90
38938;DHT22;24727;51.974;20.868;2023-02-01T00:41:29;2.00;99.90
38938;DHT22;24727;51.974;20.868;2023-02-01T00:43:55;2.10;99.90
38938;DHT22;24727;51.974;20.868;2023-02-01T00:46:21;2.20;99.90
38938;DHT22;24727;51.974;20.868;2023-02-01T00:48:48;2.20;99.90
38938;DHT22;24727;51.974;20.868;2023-02-01T00:51:16;2.30;99.90
38938;DHT22;24727;51.974;20.868;2023-02-01T00:53:44;2.50;98.80
38938;DHT22;24727;51.974;20.868;2023-02-01T00:56:12;2.60;97.80
38938;DHT22;24727;51.974;20.868;2023-02-01T00:58:38;2.70;94.50
38938;DHT22;24727;51.974;20.868;2023-02-01T01:01:07;3.00;90.10
38938;DHT22;24727;51.974;20.868;2023-02-01T01:03:36;3.00;90.10
38938;DHT22;24727;51.974;20.868;2023-02-01T01:06:05;3.20;86.20
38938;DHT22;24727;51.974;20.868;2023-02-01T01:08:35;3.20;85.20
38938;DHT22;24727;51.974;20.868;2023-02-01T01:11:14;3.10;87.20
38938;DHT22;24727;51.974;20.868;2023-02-01T01:13:41;3.10;86.70
38938;DHT22;24727;51.974;20.868;2023-02-01T01:16:10;3.20;81.10
38938;DHT22;24727;51.974;20.868;2023-02-01T01:18:37;3.10;82.70
38938;DHT22;24727;51.974;20.868;2023-02-01T01:21:08;3.10;79.20
38938;DHT22;24727;51.974;20.868;2023-02-01T01:23:35;3.10;78.40
38938;DHT22;24727;51.974;20.868;2023-02-01T01:26:05;3.00;79.30
38938;DHT22;24727;51.974;20.868;2023-02-01T01:28:33;3.10;72.80
38938;DHT22;24727;51.974;20.868;2023-02-01T01:30:59;3.10;73.50
38938;DHT22;24727;51.974;20.868;2023-02-01T01:33:25;3.00;73.70
38938;DHT22;24727;51.974;20.868;2023-02-01T01:35:53;2.90;74.10
38938;DHT22;24727;51.974;20.868;2023-02-01T01:38:19;2.90;73.00
38938;DHT22;24727;51.974;20.868;2023-02-01T01:40:46;2.90;72.20
38938;DHT22;24727;51.974;20.868;2023-02-01T01:43:14;2.80;73.80
38938;DHT22;24727;51.974;20.868;2023-02-01T01:45:41;2.80;71.40
38938;DHT22;24727;51.974;20.868;2023-02-01T01:48:14;2.90;68.40
38938;DHT22;24727;51.974;20.868;2023-02-01T01:50:51;2.90;63.40
38938;DHT22;24727;51.974;20.868;2023-02-01T01:53:24;3.00;57.50
38938;DHT22;24727;51.974;20.868;2023-02-01T01:55:51;3.10;54.10
38938;DHT22;24727;51.974;20.868;2023-02-01T01:58:21;3.00;56.20
38938;DHT22;24727;51.974;20.868;2023-02-01T02:00:48;2.80;62.40
38938;DHT22;24727;51.974;20.868;2023-02-01T02:03:16;2.80;58.00
38938;DHT22;24727;51.974;20.868;2023-02-01T02:05:45;2.80;59.50
38938;DHT22;24727;51.974;20.868;2023-02-01T02:08:12;2.80;59.90
38938;DHT22;24727;51.974;20.868;2023-02-01T02:10:39;2.70;63.40
38938;DHT22;24727;51.974;20.868;2023-02-01T02:13:26;2.70;59.70
38938;DHT22;24727;51.974;20.868;2023-02-01T02:16:23;2.80;1.00
38938;DHT22;24727;51.974;20.868;2023-02-01T02:30:27;3.10;1.00
38938;DHT22;24727;51.974;20.868;2023-02-01T02:36:13;3.10;1.00
38938;DHT22;24727;51.974;20.868;2023-02-01T02:39:16;3.10;1.00
38938;DHT22;24727;51.974;20.868;2023-02-01T02:44:48;3.10;1.00
38938;DHT22;24727;51.974;20.868;2023-02-01T02:50:41;3.00;1.00
38938;DHT22;24727;51.974;20.868;2023-02-01T02:56:48;3.00;1.00
38938;DHT22;24727;51.974;20.868;2023-02-01T02:59:34;3.00;1.00
38938;DHT22;24727;51.974;20.868;2023-02-01T03:02:19;2.90;1.00
38938;DHT22;24727;51.974;20.868;2023-02-01T03:05:04;2.90;1.00
38938;DHT22;24727;51.974;20.868;2023-02-01T03:08:11;2.80;1.00
38938;DHT22;24727;51.974;20.868;2023-02-01T03:11:14;2.80;1.00
38938;DHT22;24727;51.974;20.868;2023-02-01T03:14:00;2.90;1.00
38938;DHT22;24727;51.974;20.868;2023-02-01T03:16:50;2.80;1.00
38938;DHT22;24727;51.974;20.868;2023-02-01T03:19:24;2.80;1.00
38938;DHT22;24727;51.974;20.868;2023-02-01T03:21:59;2.80;1.00
38938;DHT22;24727;51.974;20.868;2023-02-01T03:25:05;2.80;1.00
38938;DHT22;24727;51.974;20.868;2023-02-01T03:27:30;2.80;1.00
38938;DHT22;24727;51.974;20.868;2023-02-01T03:30:12;2.80;1.00
38938;DHT22;24727;51.974;20.868;2023-02-01T03:32:45;2.80;1.00
38938;DHT22;24727;51.974;20.868;2023-02-01T03:38:14;2.90;1.00
38938;DHT22;24727;51.974;20.868;2023-02-01T03:40:46;3.00;1.00
38938;DHT22;24727;51.974;20.868;2023-02-01T03:43:17;3.00;1.00
38938;DHT22;24727;51.974;20.868;2023-02-01T03:45:54;3.00;1.00
38938;DHT22;24727;51.974;20.868;2023-02-01T03:48:27;3.00;1.00
38938;DHT22;24727;51.974;20.868;2023-02-01T03:50:57;3.00;1.00
38938;DHT22;24727;51.974;20.868;2023-02-01T03:53:25;3.00;1.00
38938;DHT22;24727;51.974;20.868;2023-02-01T03:55:52;3.10;1.00
38938;DHT22;24727;51.974;20.868;2023-02-01T03:58:22;3.00;1.00
38938;DHT22;24727;51.974;20.868;2023-02-01T04:00:57;3.00;1.00
38938;DHT22;24727;51.974;20.868;2023-02-01T04:03:24;3.10;1.00
38938;DHT22;24727;51.974;20.868;2023-02-01T04:05:51;3.10;1.00
38938;DHT22;24727;51.974;20.868;2023-02-01T04:08:21;3.10;1.00
38938;DHT22;24727;51.974;20.868;2023-02-01T04:10:47;3.10;1.00
38938;DHT22;24727;51.974;20.868;2023-02-01T04:13:13;3.10;1.00
38938;DHT22;24727;51.974;20.868;2023-02-01T04:15:39;3.10;1.00
38938;DHT22;24727;51.974;20.868;2023-02-01T04:18:05;3.10;1.00
38938;DHT22;24727;51.974;20.868;2023-02-01T04:20:31;3.10;1.00
38938;DHT22;24727;51.974;20.868;2023-02-01T04:22:58;3.10;1.00
38938;DHT22;24727;51.974;20.868;2023-02-01T04:25:25;3.10;1.00
38938;DHT22;24727;51.974;20.868;2023-02-01T04:27:51;3.10;1.00
38938;DHT22;24727;51.974;20.868;2023-02-01T04:30:18;3.10;1.00
38938;DHT22;24727;51.974;20.868;2023-02-01T04:32:45;3.10;1.00
38938;DHT22;24727;51.974;20.868;2023-02-01T04:35:11;3.20;1.00
38938;DHT22;24727;51.974;20.868;2023-02-01T04:37:37;3.10;1.00
38938;DHT22;24727;51.974;20.868;2023-02-01T04:40:03;3.10;1.00
38938;DHT22;24727;51.974;20.868;2023-02-01T04:42:29;3.10;1.00
38938;DHT22;24727;51.974;20.868;2023-02-01T04:44:55;3.10;1.00
38938;DHT22;24727;51.974;20.868;2023-02-01T04:47:21;3.10;1.00
38938;DHT22;24727;51.974;20.868;2023-02-01T04:49:47;3.00;1.00
38938;DHT22;24727;51.974;20.868;2023-02-01T04:52:16;3.00;1.00
38938;DHT22;24727;51.974;20.868;2023-02-01T04:54:42;3.00;1.00
38938;DHT22;24727;51.974;20.868;2023-02-01T04:57:09;3.00;1.00
38938;DHT22;24727;51.974;20.868;2023-02-01T04:59:36;3.00;1.00
38938;DHT22;24727;51.974;20.868;2023-02-01T05:02:02;3.00;1.00
38938;DHT22;24727;51.974;20.868;2023-02-01T05:04:28;3.10;1.00
38938;DHT22;24727;51.974;20.868;2023-02-01T05:06:54;3.10;1.00
38938;DHT22;24727;51.974;20.868;2023-02-01T05:09:20;3.10;1.00
38938;DHT22;24727;51.974;20.868;2023-02-01T05:11:48;3.20;1.00
38938;DHT22;24727;51.974;20.868;2023-02-01T05:14:32;3.20;1.00
38938;DHT22;24727;51.974;20.868;2023-02-01T05:16:59;3.10;1.00
38938;DHT22;24727;51.974;20.868;2023-02-01T05:19:25;3.10;1.00
38938;DHT22;24727;51.974;20.868;2023-02-01T05:21:52;3.10;1.00
38938;DHT22;24727;51.974;20.868;2023-02-01T05:24:18;3.20;1.00
38938;DHT22;24727;51.974;20.868;2023-02-01T05:26:47;3.10;1.00
38938;DHT22;24727;51.974;20.868;2023-02-01T05:29:16;3.10;1.00
38938;DHT22;24727;51.974;20.868;2023-02-01T05:31:45;3.10;1.00
38938;DHT22;24727;51.974;20.868;2023-02-01T05:34:11;3.20;1.00
38938;DHT22;24727;51.974;20.868;2023-02-01T05:36:39;3.10;1.00
38938;DHT22;24727;51.974;20.868;2023-02-01T05:39:05;2.90;1.00
38938;DHT22;24727;51.974;20.868;2023-02-01T05:41:30;2.80;1.00
38938;DHT22;24727;51.974;20.868;2023-02-01T05:43:56;2.80;1.00
38938;DHT22;24727;51.974;20.868;2023-02-01T05:46:23;2.90;1.00
38938;DHT22;24727;51.974;20.868;2023-02-01T05:48:49;2.90;1.00
38938;DHT22;24727;51.974;20.868;2023-02-01T05:51:14;2.90;1.00
38938;DHT22;24727;51.974;20.868;2023-02-01T05:53:40;2.80;1.00
38938;DHT22;24727;51.974;20.868;2023-02-01T05:56:06;2.80;1.00
38938;DHT22;24727;51.974;20.868;2023-02-01T05:58:33;2.80;1.00
38938;DHT22;24727;51.974;20.868;2023-02-01T06:01:00;2.80;1.00
38938;DHT22;24727;51.974;20.868;2023-02-01T06:03:27;2.80;1.00
38938;DHT22;24727;51.974;20.868;2023-02-01T06:05:54;2.90;1.00
38938;DHT22;24727;51.974;20.868;2023-02-01T06:08:20;2.90;1.00
38938;DHT22;24727;51.974;20.868;2023-02-01T06:10:46;2.90;1.00
38938;DHT22;24727;51.974;20.868;2023-02-01T06:13:14;3.00;1.00
38938;DHT22;24727;51.974;20.868;2023-02-01T06:15:41;3.00;1.00
38938;DHT22;24727;51.974;20.868;2023-02-01T06:18:09;3.00;1.00
38938;DHT22;24727;51.974;20.868;2023-02-01T06:20:35;3.00;1.00
38938;DHT22;24727;51.974;20.868;2023-02-01T06:23:01;3.10;1.00
38938;DHT22;24727;51.974;20.868;2023-02-01T06:25:28;3.10;1.00
38938;DHT22;24727;51.974;20.868;2023-02-01T06:28:00;3.00;1.00
38938;DHT22;24727;51.974;20.868;2023-02-01T06:30:27;3.10;1.00
38938;DHT22;24727;51.974;20.868;2023-02-01T06:32:54;3.00;1.00
38938;DHT22;24727;51.974;20.868;2023-02-01T06:35:20;3.00;1.00
38938;DHT22;24727;51.974;20.868;2023-02-01T06:37:46;3.00;1.00
38938;DHT22;24727;51.974;20.868;2023-02-01T06:40:12;3.00;1.00
38938;DHT22;24727;51.974;20.868;2023-02-01T06:42:38;3.10;1.00
38938;DHT22;24727;51.974;20.868;2023-02-01T06:45:06;3.10;1.00
38938;DHT22;24727;51.974;20.868;2023-02-01T06:47:32;3.00;1.00
38938;DHT22;24727;51.974;20.868;2023-02-01T06:49:58;3.10;1.00
38938;DHT22;24727;51.974;20.868;2023-02-01T06:52:25;3.20;1.00
38938;DHT22;24727;51.974;20.868;2023-02-01T06:54:51;3.20;1.00
38938;DHT22;24727;51.974;20.868;2023-02-01T06:57:17;3.10;1.00
38938;DHT22;24727;51.974;20.868;2023-02-01T06:59:43;3.20;1.00
38938;DHT22;24727;51.974;20.868;2023-02-01T07:02:11;3.20;1.00
38938;DHT22;24727;51.974;20.868;2023-02-01T07:04:37;3.20;1.00
38938;DHT22;24727;51.974;20.868;2023-02-01T07:07:03;3.20;1.00
38938;DHT22;24727;51.974;20.868;2023-02-01T07:09:29;3.20;1.00
38938;DHT22;24727;51.974;20.868;2023-02-01T07:11:55;3.30;1.00
38938;DHT22;24727;51.974;20.868;2023-02-01T07:14:21;3.30;1.00
38938;DHT22;24727;51.974;20.868;2023-02-01T07:16:47;3.30;1.00
38938;DHT22;24727;51.974;20.868;2023-02-01T07:19:13;3.30;1.00
38938;DHT22;24727;51.974;20.868;2023-02-01T07:21:39;3.30;1.00
38938;DHT22;24727;51.974;20.868;2023-02-01T07:24:05;3.20;1.00
38938;DHT22;24727;51.974;20.868;2023-02-01T07:26:31;3.20;1.00
38938;DHT22;24727;51.974;20.868;2023-02-01T07:28:57;3.20;1.00
38938;DHT22;24727;51.974;20.868;2023-02-01T07:31:24;3.20;1.00
38938;DHT22;24727;51.974;20.868;2023-02-01T07:33:52;3.30;1.00
38938;DHT22;24727;51.974;20.868;2023-02-01T07:36:18;3.30;1.00
38938;DHT22;24727;51.974;20.868;2023-02-01T07:38:45;3.30;1.00
38938;DHT22;24727;51.974;20.868;2023-02-01T07:41:16;3.30;1.00
38938;DHT22;24727;51.974;20.868;2023-02-01T07:43:42;3.30;1.00
38938;DHT22;24727;51.974;20.868;2023-02-01T07:46:09;3.40;1.00
38938;DHT22;24727;51.974;20.868;2023-02-01T07:48:35;3.40;1.00
38938;DHT22;24727;51.974;20.868;2023-02-01T07:51:04;3.40;1.00
38938;DHT22;24727;51.974;20.868;2023-02-01T07:53:32;3.50;1.00
38938;DHT22;24727;51.974;20.868;2023-02-01T07:55:59;3.50;1.00
38938;DHT22;24727;51.974;20.868;2023-02-01T07:58:26;3.50;1.00
38938;DHT22;24727;51.974;20.868;2023-02-01T08:00:53;3.50;1.00
38938;DHT22;24727;51.974;20.868;2023-02-01T08:03:37;3.50;1.00
38938;DHT22;24727;51.974;20.868;2023-02-01T08:06:04;3.50;1.00
38938;DHT22;24727;51.974;20.868;2023-02-01T08:08:36;3.50;1.00
38938;DHT22;24727;51.974;20.868;2023-02-01T08:11:05;3.60;1.00
38938;DHT22;24727;51.974;20.868;2023-02-01T08:13:32;3.60;1.00
38938;DHT22;24727;51.974;20.868;2023-02-01T08:16:00;3.50;1.00
38938;DHT22;24727;51.974;20.868;2023-02-01T08:18:28;3.50;1.00
38938;DHT22;24727;51.974;20.868;2023-02-01T08:20:55;3.60;1.00
38938;DHT22;24727;51.974;20.868;2023-02-01T08:23:22;3.60;1.00
38938;DHT22;24727;51.974;20.868;2023-02-01T08:25:49;3.60;1.00
38938;DHT22;24727;51.974;20.868;2023-02-01T08:28:15;3.50;1.00
38938;DHT22;24727;51.974;20.868;2023-02-01T08:30:41;3.40;1.00
38938;DHT22;24727;51.974;20.868;2023-02-01T08:33:08;3.30;1.00
38938;DHT22;24727;51.974;20.868;2023-02-01T08:35:37;3.30;1.00
38938;DHT22;24727;51.974;20.868;2023-02-01T08:38:03;3.20;1.00
38938;DHT22;24727;51.974;20.868;2023-02-01T08:40:31;3.10;1.00
38938;DHT22;24727;51.974;20.868;2023-02-01T08:42:57;3.00;1.00
38938;DHT22;24727;51.974;20.868;2023-02-01T08:45:28;3.00;1.00
38938;DHT22;24727;51.974;20.868;2023-02-01T08:47:56;3.00;1.00
38938;DHT22;24727;51.974;20.868;2023-02-01T08:50:23;3.10;1.00
38938;DHT22;24727;51.974;20.868;2023-02-01T08:53:02;3.20;1.00
38938;DHT22;24727;51.974;20.868;2023-02-01T08:55:28;3.30;1.00
38938;DHT22;24727;51.974;20.868;2023-02-01T08:57:54;3.40;1.00
38938;DHT22;24727;51.974;20.868;2023-02-01T09:00:20;3.60;1.00
38938;DHT22;24727;51.974;20.868;2023-02-01T09:02:46;3.70;1.00
38938;DHT22;24727;51.974;20.868;2023-02-01T09:05:12;3.90;1.00
38938;DHT22;24727;51.974;20.868;2023-02-01T09:07:40;3.90;1.00
38938;DHT22;24727;51.974;20.868;2023-02-01T09:10:06;3.90;1.00
38938;DHT22;24727;51.974;20.868;2023-02-01T09:12:34;3.90;1.00
38938;DHT22;24727;51.974;20.868;2023-02-01T09:15:00;3.90;1.00
38938;DHT22;24727;51.974;20.868;2023-02-01T09:17:27;3.90;1.00
38938;DHT22;24727;51.974;20.868;2023-02-01T09:19:53;3.90;1.00
38938;DHT22;24727;51.974;20.868;2023-02-01T09:22:22;4.00;1.00
38938;DHT22;24727;51.974;20.868;2023-02-01T09:24:47;4.00;1.00
38938;DHT22;24727;51.974;20.868;2023-02-01T09:27:13;4.00;1.00
38938;DHT22;24727;51.974;20.868;2023-02-01T09:29:40;4.10;1.00
38938;DHT22;24727;51.974;20.868;2023-02-01T09:32:06;4.00;1.00
38938;DHT22;24727;51.974;20.868;2023-02-01T09:34:32;4.00;1.00
38938;DHT22;24727;51.974;20.868;2023-02-01T09:36:59;4.00;1.00
38938;DHT22;24727;51.974;20.868;2023-02-01T09:39:26;4.00;1.00
38938;DHT22;24727;51.974;20.868;2023-02-01T09:47:16;4.10;1.00
38938;DHT22;24727;51.974;20.868;2023-02-01T09:50:00;4.20;1.00
38938;DHT22;24727;51.974;20.868;2023-02-01T09:55:55;4.60;1.00
38938;DHT22;24727;51.974;20.868;2023-02-01T09:58:24;4.70;1.00
38938;DHT22;24727;51.974;20.868;2023-02-01T10:00:55;4.80;1.00
38938;DHT22;24727;51.974;20.868;2023-02-01T10:03:24;4.90;1.00
38938;DHT22;24727;51.974;20.868;2023-02-01T10:06:16;4.90;1.00
38938;DHT22;24727;51.974;20.868;2023-02-01T10:17:24;4.70;1.00
38938;DHT22;24727;51.974;20.868;2023-02-01T10:20:13;4.60;1.00
38938;DHT22;24727;51.974;20.868;2023-02-01T10:23:00;4.70;1.00
38938;DHT22;24727;51.974;20.868;2023-02-01T10:28:24;4.70;1.00
38938;DHT22;24727;51.974;20.868;2023-02-01T10:30:56;4.60;1.00
38938;DHT22;24727;51.974;20.868;2023-02-01T10:33:36;4.50;1.00
38938;DHT22;24727;51.974;20.868;2023-02-01T10:38:34;4.70;1.00
38938;DHT22;24727;51.974;20.868;2023-02-01T10:41:19;4.80;1.00
38938;DHT22;24727;51.974;20.868;2023-02-01T10:43:53;4.90;1.00
38938;DHT22;24727;51.974;20.868;2023-02-01T10:46:23;5.00;1.00
38938;DHT22;24727;51.974;20.868;2023-02-01T10:48:52;4.90;1.00
38938;DHT22;24727;51.974;20.868;2023-02-01T10:51:26;4.80;1.00
38938;DHT22;24727;51.974;20.868;2023-02-01T10:54:01;4.70;1.00
38938;DHT22;24727;51.974;20.868;2023-02-01T10:56:29;4.80;1.00
38938;DHT22;24727;51.974;20.868;2023-02-01T10:59:05;4.80;1.00
38938;DHT22;24727;51.974;20.868;2023-02-01T11:01:36;4.80;1.00
38938;DHT22;24727;51.974;20.868;2023-02-01T11:04:05;4.80;1.00
38938;DHT22;24727;51.974;20.868;2023-02-01T11:06:37;4.80;1.00
38938;DHT22;24727;51.974;20.868;2023-02-01T11:11:52;4.60;1.00
38938;DHT22;24727;51.974;20.868;2023-02-01T11:16:59;4.60;1.00
38938;DHT22;24727;51.974;20.868;2023-02-01T11:19:29;4.50;1.00
38938;DHT22;24727;51.974;20.868;2023-02-01T11:21:58;4.50;1.00
38938;DHT22;24727;51.974;20.868;2023-02-01T11:24:36;4.50;1.00
38938;DHT22;24727;51.974;20.868;2023-02-01T11:27:20;4.40;1.00
38938;DHT22;24727;51.974;20.868;2023-02-01T11:29:50;4.40;1.00
38938;DHT22;24727;51.974;20.868;2023-02-01T11:32:19;4.40;1.00
38938;DHT22;24727;51.974;20.868;2023-02-01T11:34:49;4.40;1.00
38938;DHT22;24727;51.974;20.868;2023-02-01T11:37:37;4.40;1.00
38938;DHT22;24727;51.974;20.868;2023-02-01T11:40:25;4.40;1.00
38938;DHT22;24727;51.974;20.868;2023-02-01T11:45:34;4.40;1.00
38938;DHT22;24727;51.974;20.868;2023-02-01T11:48:09;4.40;1.00
38938;DHT22;24727;51.974;20.868;2023-02-01T12:12:53;4.40;1.00
38938;DHT22;24727;51.974;20.868;2023-02-01T12:22:11;4.20;1.00
38938;DHT22;24727;51.974;20.868;2023-02-01T12:33:31;4.20;1.00
38938;DHT22;24727;51.974;20.868;2023-02-01T12:44:40;4.30;1.00
38938;DHT22;24727;51.974;20.868;2023-02-01T12:52:42;4.30;1.00
38938;DHT22;24727;51.974;20.868;2023-02-01T12:55:26;4.40;1.00
38938;DHT22;24727;51.974;20.868;2023-02-01T12:58:15;4.50;1.00
38938;DHT22;24727;51.974;20.868;2023-02-01T13:04:08;4.60;1.00
38938;DHT22;24727;51.974;20.868;2023-02-01T13:07:09;4.60;1.00
38938;DHT22;24727;51.974;20.868;2023-02-01T13:10:07;4.50;1.00
38938;DHT22;24727;51.974;20.868;2023-02-01T13:12:53;4.50;1.00
38938;DHT22;24727;51.974;20.868;2023-02-01T13:15:28;4.50;1.00
38938;DHT22;24727;51.974;20.868;2023-02-01T13:17:59;4.50;1.00
38938;DHT22;24727;51.974;20.868;2023-02-01T13:23:30;4.60;1.00
38938;DHT22;24727;51.974;20.868;2023-02-01T13:26:00;4.60;1.00
38938;DHT22;24727;51.974;20.868;2023-02-01T13:37:12;4.40;1.00
38938;DHT22;24727;51.974;20.868;2023-02-01T13:42:27;4.30;1.00
38938;DHT22;24727;51.974;20.868;2023-02-01T13:45:03;4.30;1.00
38938;DHT22;24727;51.974;20.868;2023-02-01T13:47:40;4.30;1.00
38938;DHT22;24727;51.974;20.868;2023-02-01T13:50:38;4.40;1.00
38938;DHT22;24727;51.974;20.868;2023-02-01T13:53:21;4.60;1.00
38938;DHT22;24727;51.974;20.868;2023-02-01T13:56:14;4.60;1.00
38938;DHT22;24727;51.974;20.868;2023-02-01T13:58:47;4.70;1.00
38938;DHT22;24727;51.974;20.868;2023-02-01T14:03:56;4.50;1.00
38938;DHT22;24727;51.974;20.868;2023-02-01T14:11:37;4.60;1.00
38938;DHT22;24727;51.974;20.868;2023-02-01T14:19:27;4.60;1.00
38938;DHT22;24727;51.974;20.868;2023-02-01T14:25:16;4.60;1.00
38938;DHT22;24727;51.974;20.868;2023-02-01T14:27:43;4.60;1.00
38938;DHT22;24727;51.974;20.868;2023-02-01T14:30:15;4.60;1.00
38938;DHT22;24727;51.974;20.868;2023-02-01T14:32:55;4.60;1.00
38938;DHT22;24727;51.974;20.868;2023-02-01T14:35:25;4.60;1.00
38938;DHT22;24727;51.974;20.868;2023-02-01T14:37:54;4.50;1.00
38938;DHT22;24727;51.974;20.868;2023-02-01T14:40:27;4.40;1.00
38938;DHT22;24727;51.974;20.868;2023-02-01T14:42:55;4.40;1.00
38938;DHT22;24727;51.974;20.868;2023-02-01T15:01:02;4.20;1.00
38938;DHT22;24727;51.974;20.868;2023-02-01T15:04:05;4.20;1.00
38938;DHT22;24727;51.974;20.868;2023-02-01T15:06:36;4.10;1.00
38938;DHT22;24727;51.974;20.868;2023-02-01T15:09:41;4.10;1.00
38938;DHT22;24727;51.974;20.868;2023-02-01T15:14:43;4.10;1.00
38938;DHT22;24727;51.974;20.868;2023-02-01T15:17:40;4.20;1.00
38938;DHT22;24727;51.974;20.868;2023-02-01T15:20:22;4.20;1.00
38938;DHT22;24727;51.974;20.868;2023-02-01T15:23:03;4.20;1.00
38938;DHT22;24727;51.974;20.868;2023-02-01T15:25:35;4.20;1.00
38938;DHT22;24727;51.974;20.868;2023-02-01T15:28:03;4.20;1.00
38938;DHT22;24727;51.974;20.868;2023-02-01T15:30:35;4.20;1.00
38938;DHT22;24727;51.974;20.868;2023-02-01T15:41:11;3.80;1.00
38938;DHT22;24727;51.974;20.868;2023-02-01T15:46:16;3.70;1.00
38938;DHT22;24727;51.974;20.868;2023-02-01T15:48:51;3.70;1.00
38938;DHT22;24727;51.974;20.868;2023-02-01T15:51:27;3.80;1.00
38938;DHT22;24727;51.974;20.868;2023-02-01T15:56:28;3.70;1.00
38938;DHT22;24727;51.974;20.868;2023-02-01T15:59:00;3.60;1.00
38938;DHT22;24727;51.974;20.868;2023-02-01T16:01:27;3.70;1.00
38938;DHT22;24727;51.974;20.868;2023-02-01T16:04:25;3.70;1.00
38938;DHT22;24727;51.974;20.868;2023-02-01T16:07:02;3.80;1.00
38938;DHT22;24727;51.974;20.868;2023-02-01T16:12:46;3.80;1.00
38938;DHT22;24727;51.974;20.868;2023-02-01T16:15:12;3.80;1.00
38938;DHT22;24727;51.974;20.868;2023-02-01T16:17:38;3.80;1.00
38938;DHT22;24727;51.974;20.868;2023-02-01T16:20:05;3.70;1.00
38938;DHT22;24727;51.974;20.868;2023-02-01T16:22:31;3.70;1.00
38938;DHT22;24727;51.974;20.868;2023-02-01T16:24:58;3.70;1.00
38938;DHT22;24727;51.974;20.868;2023-02-01T16:27:26;3.70;1.00
38938;DHT22;24727;51.974;20.868;2023-02-01T16:29:52;3.70;1.00
38938;DHT22;24727;51.974;20.868;2023-02-01T16:32:21;3.70;1.00
38938;DHT22;24727;51.974;20.868;2023-02-01T16:34:49;3.70;1.00
38938;DHT22;24727;51.974;20.868;2023-02-01T16:37:24;3.70;1.00
38938;DHT22;24727;51.974;20.868;2023-02-01T16:39:50;3.70;1.00
38938;DHT22;24727;51.974;20.868;2023-02-01T16:42:18;3.70;1.00
38938;DHT22;24727;51.974;20.868;2023-02-01T16:44:46;3.70;1.00
38938;DHT22;24727;51.974;20.868;2023-02-01T16:47:18;3.70;1.00
38938;DHT22;24727;51.974;20.868;2023-02-01T16:49:45;3.60;1.00
38938;DHT22;24727;51.974;20.868;2023-02-01T16:52:22;3.60;1.00
38938;DHT22;24727;51.974;20.868;2023-02-01T16:54:48;3.50;1.00
38938;DHT22;24727;51.974;20.868;2023-02-01T16:57:17;3.50;1.00
38938;DHT22;24727;51.974;20.868;2023-02-01T16:59:43;3.50;1.00
38938;DHT22;24727;51.974;20.868;2023-02-01T17:02:15;3.40;1.00
38938;DHT22;24727;51.974;20.868;2023-02-01T17:04:42;3.40;1.00
38938;DHT22;24727;51.974;20.868;2023-02-01T17:07:15;3.30;1.00
38938;DHT22;24727;51.974;20.868;2023-02-01T17:09:42;3.20;1.00
38938;DHT22;24727;51.974;20.868;2023-02-01T17:12:29;3.20;1.00
38938;DHT22;24727;51.974;20.868;2023-02-01T17:14:57;3.10;1.00
38938;DHT22;24727;51.974;20.868;2023-02-01T17:17:35;3.10;1.00
38938;DHT22;24727;51.974;20.868;2023-02-01T17:20:04;3.10;1.00
38938;DHT22;24727;51.974;20.868;2023-02-01T17:22:33;3.10;1.00
38938;DHT22;24727;51.974;20.868;2023-02-01T17:24:59;3.10;1.00
38938;DHT22;24727;51.974;20.868;2023-02-01T17:27:27;3.00;1.00
38938;DHT22;24727;51.974;20.868;2023-02-01T17:29:56;3.00;1.00
38938;DHT22;24727;51.974;20.868;2023-02-01T17:32:24;3.00;1.00
38938;DHT22;24727;51.974;20.868;2023-02-01T17:34:51;3.10;1.00
38938;DHT22;24727;51.974;20.868;2023-02-01T17:37:37;3.10;1.00
38938;DHT22;24727;51.974;20.868;2023-02-01T17:40:04;3.10;1.00
38938;DHT22;24727;51.974;20.868;2023-02-01T17:42:30;3.20;1.00
38938;DHT22;24727;51.974;20.868;2023-02-01T17:45:01;3.10;1.00
38938;DHT22;24727;51.974;20.868;2023-02-01T17:47:38;3.20;1.00
38938;DHT22;24727;51.974;20.868;2023-02-01T17:50:05;3.10;1.00
38938;DHT22;24727;51.974;20.868;2023-02-01T17:52:32;3.10;1.00
38938;DHT22;24727;51.974;20.868;2023-02-01T17:55:18;3.00;1.00
38938;DHT22;24727;51.974;20.868;2023-02-01T17:57:45;3.00;1.00
38938;DHT22;24727;51.974;20.868;2023-02-01T18:00:15;3.00;1.00
38938;DHT22;24727;51.974;20.868;2023-02-01T18:02:42;3.00;1.00
38938;DHT22;24727;51.974;20.868;2023-02-01T18:05:22;3.10;1.00
38938;DHT22;24727;51.974;20.868;2023-02-01T18:07:49;3.20;1.00
38938;DHT22;24727;51.974;20.868;2023-02-01T18:10:16;3.20;1.00
38938;DHT22;24727;51.974;20.868;2023-02-01T18:12:44;3.20;1.00
38938;DHT22;24727;51.974;20.868;2023-02-01T18:15:21;3.30;1.00
38938;DHT22;24727;51.974;20.868;2023-02-01T18:17:50;3.30;1.00
38938;DHT22;24727;51.974;20.868;2023-02-01T18:20:22;3.30;1.00
38938;DHT22;24727;51.974;20.868;2023-02-01T18:22:52;3.30;1.00
38938;DHT22;24727;51.974;20.868;2023-02-01T18:25:23;3.40;1.00
38938;DHT22;24727;51.974;20.868;2023-02-01T18:27:55;3.40;1.00
38938;DHT22;24727;51.974;20.868;2023-02-01T18:30:33;3.50;1.00
38938;DHT22;24727;51.974;20.868;2023-02-01T18:33:01;3.40;1.00
38938;DHT22;24727;51.974;20.868;2023-02-01T18:35:30;3.40;1.00
38938;DHT22;24727;51.974;20.868;2023-02-01T18:37:57;3.40;1.00
38938;DHT22;24727;51.974;20.868;2023-02-01T18:40:33;3.40;1.00
38938;DHT22;24727;51.974;20.868;2023-02-01T18:43:00;3.40;1.00
38938;DHT22;24727;51.974;20.868;2023-02-01T18:45:39;3.40;1.00
38938;DHT22;24727;51.974;20.868;2023-02-01T18:48:08;3.50;1.00
38938;DHT22;24727;51.974;20.868;2023-02-01T18:50:38;3.50;1.00
38938;DHT22;24727;51.974;20.868;2023-02-01T18:53:12;3.50;1.00
38938;DHT22;24727;51.974;20.868;2023-02-01T18:55:40;3.40;1.00
38938;DHT22;24727;51.974;20.868;2023-02-01T18:58:06;3.50;1.00
38938;DHT22;24727;51.974;20.868;2023-02-01T19:00:34;3.50;1.00
38938;DHT22;24727;51.974;20.868;2023-02-01T19:03:01;3.40;1.00
38938;DHT22;24727;51.974;20.868;2023-02-01T19:05:29;3.30;1.00
38938;DHT22;24727;51.974;20.868;2023-02-01T19:07:57;3.20;1.00